Time;durP1;ratioP1;P1;durP2;ratioP2;P2;SDS_P1;SDS_P2;PMS_P1;PMS_P2;Temp;Humidity;BMP_temperature;BMP_pressure;BME280_temperature;BME280_humidity;BME280_pressure;Samples;Min_cycle;Max_cycle;Signal;HPM_P1;HPM_P2
2022/08/16 00:00:40;;;;;;;3.60;2.80;;;;;;;19.96;63.88;97427.28;5055009;28;20308;-67
2022/08/16 00:03:08;;;;;;;2.63;2.43;;;;;;;19.97;63.94;97426.19;5055093;28;20276;-67
2022/08/16 00:05:35;;;;;;;4.30;2.60;;;;;;;20.03;63.93;97433.91;5054908;28;20316;-67
2022/08/16 00:08:01;;;;;;;2.80;2.60;;;;;;;20.00;63.85;97422.91;5055231;28;20296;-67
2022/08/16 00:10:31;;;;;;;2.77;2.50;;;;;;;19.94;64.17;97424.09;5054934;28;20316;-67
2022/08/16 00:12:59;;;;;;;4.73;2.60;;;;;;;19.93;64.28;97425.19;5054949;28;20196;-67
2022/08/16 00:15:33;;;;;;;2.43;2.33;;;;;;;19.91;64.65;97424.66;5054551;28;20201;-67
2022/08/16 00:18:00;;;;;;;3.20;2.47;;;;;;;19.85;64.71;97426.63;5055137;28;20231;-67
2022/08/16 00:20:27;;;;;;;2.90;2.50;;;;;;;19.81;64.68;97431.00;5054624;28;20228;-67
2022/08/16 00:22:54;;;;;;;4.00;2.63;;;;;;;19.76;64.96;97428.38;5054633;28;20296;-67
2022/08/16 00:25:24;;;;;;;2.70;2.50;;;;;;;19.72;65.24;97434.66;5054589;28;20277;-67
2022/08/16 00:27:51;;;;;;;3.70;2.43;;;;;;;19.65;65.39;97443.13;5054642;28;20237;-67
2022/08/16 00:30:20;;;;;;;2.87;2.43;;;;;;;19.64;65.42;97439.59;5054285;28;20265;-67
2022/08/16 00:32:49;;;;;;;3.07;2.40;;;;;;;19.64;65.75;97445.00;5054421;28;20674;-67
2022/08/16 00:35:29;;;;;;;3.20;2.57;;;;;;;19.64;65.65;97436.13;5054438;28;20297;-67
2022/08/16 00:37:56;;;;;;;4.07;2.67;;;;;;;19.59;65.60;97431.59;5054425;28;20247;-67
2022/08/16 00:40:30;;;;;;;3.43;2.50;;;;;;;19.54;66.36;97436.28;5053947;28;20319;-67
2022/08/16 00:42:57;;;;;;;2.97;2.50;;;;;;;19.45;66.95;97438.78;5054822;28;20524;-67
2022/08/16 00:46:01;;;;;;;2.80;2.60;;;;;;;19.49;66.71;97444.41;5054152;28;20324;-67
2022/08/16 00:48:30;;;;;;;2.83;2.50;;;;;;;19.42;66.96;97447.44;5053942;28;20204;-67
2022/08/16 00:50:57;;;;;;;2.73;2.40;;;;;;;19.39;66.77;97445.34;5053837;28;20211;-67
2022/08/16 00:53:24;;;;;;;3.07;2.70;;;;;;;19.42;66.70;97444.75;5054069;28;20300;-67
2022/08/16 00:55:55;;;;;;;3.20;2.50;;;;;;;19.38;66.94;97440.25;5053833;28;20247;-67
2022/08/16 00:58:23;;;;;;;3.60;2.70;;;;;;;19.35;66.72;97444.31;5053808;28;20280;-67
2022/08/16 01:00:50;;;;;;;4.43;2.50;;;;;;;19.30;67.26;97441.69;5053399;28;20704;-67
2022/08/16 01:03:19;;;;;;;2.73;2.50;;;;;;;19.34;67.14;97440.03;5053799;28;20295;-67
2022/08/16 01:05:46;;;;;;;2.90;2.60;;;;;;;19.38;67.49;97442.94;5053292;28;20324;-67
2022/08/16 01:08:16;;;;;;;2.87;2.67;;;;;;;19.33;67.96;97440.31;5053895;28;20287;-67
2022/08/16 01:10:43;;;;;;;3.10;2.80;;;;;;;19.27;68.69;97439.56;5053766;28;20233;-67
2022/08/16 01:13:13;;;;;;;3.10;2.80;;;;;;;19.33;68.95;97434.94;5035991;28;20296;-67
2022/08/16 01:15:46;;;;;;;2.90;2.70;;;;;;;19.31;69.16;97446.00;5036185;28;20190;-67
2022/08/16 01:18:18;;;;;;;4.83;3.17;;;;;;;19.32;69.43;97444.91;5053719;28;20288;-67
2022/08/16 01:21:05;;;;;;;3.60;2.73;;;;;;;19.28;70.00;97441.16;5053672;28;20229;-67
2022/08/16 01:23:53;;;;;;;3.47;2.90;;;;;;;19.31;69.97;97439.78;5035715;28;20197;-67
2022/08/16 01:26:20;;;;;;;3.00;2.80;;;;;;;19.27;70.69;97442.28;5054195;28;20190;-66
2022/08/16 01:28:48;;;;;;;3.80;3.10;;;;;;;19.31;70.52;97439.78;5053089;28;20215;-67
2022/08/16 01:31:16;;;;;;;3.97;2.80;;;;;;;19.31;70.73;97445.19;5053583;28;20196;-67
2022/08/16 01:33:43;;;;;;;4.07;2.83;;;;;;;19.30;71.35;97439.00;5053427;28;20204;-67
2022/08/16 01:36:09;;;;;;;3.73;2.90;;;;;;;19.31;71.13;97439.78;5053185;28;20205;-67
2022/08/16 01:38:45;;;;;;;3.73;2.83;;;;;;;19.21;71.80;97454.19;5053412;28;20300;-67
2022/08/16 01:41:20;;;;;;;3.00;2.80;;;;;;;19.30;71.41;97447.09;5053229;28;20254;-67
2022/08/16 01:43:47;;;;;;;4.07;3.10;;;;;;;19.21;72.08;97440.69;5053440;28;20193;-67
2022/08/16 01:46:27;;;;;;;5.87;2.93;;;;;;;19.24;72.03;97442.88;5053388;28;20197;-67
2022/08/16 01:49:04;;;;;;;5.23;3.00;;;;;;;19.32;71.38;97450.28;5053844;28;20233;-67
2022/08/16 01:51:31;;;;;;;4.00;3.50;;;;;;;19.35;70.87;97444.31;5053125;28;20648;-67
2022/08/16 01:53:58;;;;;;;3.60;3.07;;;;;;;19.35;71.04;97449.72;5053328;28;20296;-67
2022/08/16 01:56:26;;;;;;;4.70;3.20;;;;;;;19.18;71.16;97446.66;5053318;28;20209;-66
2022/08/16 01:58:57;;;;;;;3.50;3.23;;;;;;;19.24;71.32;97448.25;5053266;28;20302;-67
2022/08/16 02:01:23;;;;;;;5.53;3.70;;;;;;;19.01;73.47;97450.94;5053794;28;20280;-67
2022/08/16 02:03:50;;;;;;;3.90;3.23;;;;;;;18.99;73.98;97445.81;5053275;28;20212;-67
2022/08/16 02:06:16;;;;;;;4.93;3.67;;;;;;;18.95;74.51;97447.47;5053167;28;20320;-67
2022/08/16 02:08:43;;;;;;;4.43;4.03;;;;;;;18.83;76.00;97443.59;5053183;28;20209;-67
2022/08/16 02:11:10;;;;;;;6.13;3.53;;;;;;;18.84;76.37;97440.59;5053467;28;20207;-67
2022/08/16 02:13:39;;;;;;;5.43;3.60;;;;;;;18.78;76.74;97444.41;5056547;28;20300;-66
2022/08/16 02:16:07;;;;;;;4.77;3.60;;;;;;;18.83;76.58;97440.88;5057135;28;20196;-67
2022/08/16 02:18:34;;;;;;;5.30;3.43;;;;;;;18.72;77.38;97434.81;5057004;28;20249;-67
2022/08/16 02:21:02;;;;;;;4.03;3.70;;;;;;;18.65;78.44;97442.44;5057025;28;20201;-67
2022/08/16 02:23:28;;;;;;;5.00;3.73;;;;;;;18.73;78.45;97446.38;5057003;28;20224;-67
2022/08/16 02:25:55;;;;;;;4.37;3.60;;;;;;;18.76;78.51;97440.41;5056839;28;20221;-67
2022/08/16 02:28:24;;;;;;;3.80;3.40;;;;;;;18.75;78.66;97441.50;5056854;28;20288;-67
2022/08/16 02:30:51;;;;;;;4.67;3.67;;;;;;;18.69;78.61;97443.44;5056378;28;20236;-67
2022/08/16 02:33:17;;;;;;;3.93;3.53;;;;;;;18.74;78.61;97438.00;5056387;28;20651;-67
2022/08/16 02:35:43;;;;;;;3.97;3.63;;;;;;;18.79;78.74;97435.28;5056742;28;20292;-67
2022/08/16 02:38:10;;;;;;;5.07;3.43;;;;;;;18.78;78.38;97430.97;5056389;28;20661;-67
2022/08/16 02:40:38;;;;;;;3.70;3.40;;;;;;;18.77;78.68;97432.06;5056547;28;20221;-67
2022/08/16 02:43:06;;;;;;;4.13;3.73;;;;;;;18.78;78.53;97433.66;5056330;28;20209;-66
2022/08/16 02:45:32;;;;;;;3.63;3.33;;;;;;;18.79;78.52;97435.28;5056476;28;20308;-66
2022/08/16 02:47:59;;;;;;;4.33;3.67;;;;;;;18.83;78.31;97432.81;5056149;28;20217;-67
2022/08/16 02:50:26;;;;;;;4.37;3.93;;;;;;;18.79;78.94;97432.59;5055937;28;20591;-67
2022/08/16 02:52:53;;;;;;;3.90;3.50;;;;;;;18.76;79.01;97421.56;5056342;28;20212;-67
2022/08/16 02:55:20;;;;;;;6.20;3.37;;;;;;;18.77;79.28;97423.19;5056007;28;20296;-67
2022/08/16 02:57:47;;;;;;;5.10;3.57;;;;;;;18.76;79.29;97421.56;5056259;28;20287;-67
2022/08/16 03:00:15;;;;;;;4.63;3.60;;;;;;;18.71;79.47;97419.75;5056030;28;20229;-67
2022/08/16 03:02:43;;;;;;;3.63;3.33;;;;;;;18.72;79.25;97415.97;5056190;28;20240;-67
2022/08/16 03:05:14;;;;;;;4.20;3.80;;;;;;;18.69;79.42;97421.91;5056002;28;20312;-66
2022/08/16 03:07:42;;;;;;;5.90;3.63;;;;;;;18.59;80.13;97419.31;5056733;28;20194;-67
2022/08/16 03:10:11;;;;;;;5.23;3.40;;;;;;;18.62;80.31;97424.16;5055706;28;20704;-67
2022/08/16 03:12:38;;;;;;;5.83;4.33;;;;;;;18.60;80.75;97420.91;5055961;28;20228;-67
2022/08/16 03:15:08;;;;;;;4.57;4.17;;;;;;;18.60;80.71;97417.44;5056419;28;20288;-67
2022/08/16 03:17:35;;;;;;;4.70;4.07;;;;;;;18.57;81.31;97420.69;5055583;28;20696;-69
2022/08/16 03:20:03;;;;;;;5.77;3.90;;;;;;;18.53;81.24;97420.47;5056053;28;20252;-67
2022/08/16 03:22:30;;;;;;;5.60;4.17;;;;;;;18.49;81.65;97411.34;5055773;28;20205;-67
2022/08/16 03:24:59;;;;;;;5.07;4.07;;;;;;;18.52;81.40;97409.97;5054524;28;20248;-67
2022/08/16 03:27:26;;;;;;;6.07;3.90;;;;;;;18.39;82.23;97406.06;5055717;28;20295;-67
2022/08/16 03:29:53;;;;;;;4.67;3.63;;;;;;;18.36;82.40;97395.06;5055062;28;20750;-67
2022/08/16 03:32:19;;;;;;;5.33;3.80;;;;;;;18.36;82.31;97393.19;5055487;28;20247;-67
2022/08/16 03:34:46;;;;;;;4.73;4.10;;;;;;;18.41;82.36;97400.41;5055032;28;20697;-67
2022/08/16 03:37:13;;;;;;;4.37;3.97;;;;;;;18.38;82.02;97392.91;5055434;28;20229;-67
2022/08/16 03:39:39;;;;;;;6.60;3.73;;;;;;;18.43;81.63;97406.31;5055338;28;20228;-67
2022/08/16 03:42:07;;;;;;;6.73;3.57;;;;;;;18.38;81.83;97406.34;5055785;28;20216;-67
2022/08/16 03:44:34;;;;;;;4.10;3.60;;;;;;;18.37;81.68;97405.53;5055377;28;20300;-67
2022/08/16 03:47:01;;;;;;;5.20;3.27;;;;;;;18.34;82.00;97408.81;5054937;28;20209;-67
2022/08/16 03:49:28;;;;;;;5.93;3.80;;;;;;;18.24;82.54;97414.25;5055203;28;20221;-67
2022/08/16 03:51:55;;;;;;;7.17;4.00;;;;;;;18.15;83.54;97410.56;5055197;28;20251;-67
2022/08/16 03:54:21;;;;;;;5.00;4.03;;;;;;;18.18;83.71;97410.00;5055165;28;20206;-67
2022/08/16 03:56:48;;;;;;;4.83;3.80;;;;;;;18.19;83.44;97408.91;5055349;28;20279;-67
2022/08/16 03:59:14;;;;;;;5.73;4.57;;;;;;;18.20;83.35;97405.16;5055904;28;20630;-67
2022/08/16 04:01:40;;;;;;;4.57;3.80;;;;;;;17.97;84.73;97408.56;5054864;28;20300;-67
2022/08/16 04:04:07;;;;;;;5.30;3.87;;;;;;;18.06;84.43;97398.78;5054734;28;20292;-67
2022/08/16 04:06:33;;;;;;;4.50;4.03;;;;;;;18.09;84.27;97406.31;5054558;28;20229;-67
2022/08/16 04:08:59;;;;;;;4.50;3.80;;;;;;;18.12;83.88;97403.06;5054583;28;20587;-67
2022/08/16 04:11:26;;;;;;;5.90;3.77;;;;;;;18.17;83.87;97408.41;5054746;28;20201;-67
2022/08/16 04:13:52;;;;;;;4.13;3.67;;;;;;;18.18;83.38;97404.63;5054274;28;20755;-67
2022/08/16 04:16:19;;;;;;;6.13;3.73;;;;;;;18.12;83.32;97405.75;5054572;28;20296;-68
2022/08/16 04:18:47;;;;;;;5.67;3.87;;;;;;;18.06;84.06;97400.69;5054038;28;20628;-67
2022/08/16 04:21:13;;;;;;;5.13;4.20;;;;;;;18.17;83.27;97411.09;5054471;28;20209;-67
2022/08/16 04:23:40;;;;;;;4.37;3.60;;;;;;;18.13;83.66;97409.22;5054127;28;20759;-67
2022/08/16 04:26:07;;;;;;;5.90;4.40;;;;;;;18.20;83.53;97421.28;5054387;28;20229;-67
2022/08/16 04:28:34;;;;;;;5.87;4.10;;;;;;;18.21;83.53;97419.38;5054733;28;20216;-67
2022/08/16 04:31:00;;;;;;;4.10;3.67;;;;;;;18.25;83.23;97420.44;5054888;28;20217;-67
2022/08/16 04:33:27;;;;;;;4.47;4.07;;;;;;;18.29;82.80;97424.97;5054223;28;20300;-67
2022/08/16 04:35:56;;;;;;;4.63;3.87;;;;;;;18.30;82.77;97426.59;5054560;28;20295;-67
2022/08/16 04:38:22;;;;;;;5.90;3.67;;;;;;;18.31;82.84;97428.19;5053737;28;20209;-67
2022/08/16 04:40:49;;;;;;;4.47;4.07;;;;;;;18.31;83.12;97416.59;5053793;28;20332;-67
2022/08/16 04:43:15;;;;;;;7.27;4.33;;;;;;;18.35;82.98;97420.38;5053522;28;20300;-67
2022/08/16 04:45:42;;;;;;;5.70;4.00;;;;;;;18.39;83.26;97427.59;5053594;28;20221;-67
2022/08/16 04:48:09;;;;;;;4.83;4.30;;;;;;;18.45;83.12;97434.53;5053682;28;20668;-67
2022/08/16 04:50:36;;;;;;;5.30;4.20;;;;;;;18.49;83.07;97437.47;5054111;28;20229;-67
2022/08/16 04:53:03;;;;;;;4.77;4.23;;;;;;;18.48;82.88;97441.25;5053769;28;20205;-67
2022/08/16 04:55:31;;;;;;;6.73;4.60;;;;;;;18.49;82.85;97443.66;5053675;28;20289;-67
2022/08/16 04:57:57;;;;;;;5.17;4.70;;;;;;;18.55;82.68;97442.50;5053197;28;20298;-67
2022/08/16 05:00:31;;;;;;;4.77;4.27;;;;;;;18.57;82.77;97450.31;5053125;28;20716;-67
2022/08/16 05:02:58;;;;;;;5.47;4.43;;;;;;;18.62;82.77;97451.06;5053860;28;20224;-67
2022/08/16 05:05:25;;;;;;;4.90;4.20;;;;;;;18.62;82.58;97443.00;5052984;28;20653;-67
2022/08/16 05:07:51;;;;;;;5.40;4.17;;;;;;;18.72;81.82;97447.44;5053288;28;20731;-67
2022/08/16 05:10:18;;;;;;;4.37;3.97;;;;;;;18.70;82.47;97446.94;5053087;28;20336;-67
2022/08/16 05:12:45;;;;;;;5.97;4.30;;;;;;;18.71;82.12;97448.53;5052712;28;20300;-67
2022/08/16 05:15:12;;;;;;;5.80;4.13;;;;;;;18.79;81.17;97448.75;5053586;28;20205;-67
2022/08/16 05:17:38;;;;;;;6.87;4.60;;;;;;;18.74;81.46;97448.78;5053499;28;20300;-67
2022/08/16 05:20:07;;;;;;;5.47;4.43;;;;;;;18.78;81.83;97446.34;5052875;28;20648;-67
2022/08/16 05:22:35;;;;;;;7.50;4.80;;;;;;;18.86;81.95;97443.81;5052656;28;20608;-67
2022/08/16 05:25:01;;;;;;;5.43;4.93;;;;;;;18.86;81.82;97457.28;5053030;28;20208;-67
2022/08/16 05:27:28;;;;;;;5.53;5.03;;;;;;;18.99;81.51;97456.59;5053147;28;20589;-67
2022/08/16 05:29:55;;;;;;;6.57;5.30;;;;;;;18.97;81.02;97457.97;5052968;28;20324;-67
2022/08/16 05:32:21;;;;;;;6.43;4.60;;;;;;;19.07;80.76;97455.97;5053173;28;20378;-67
2022/08/16 05:34:47;;;;;;;7.53;4.50;;;;;;;19.06;80.24;97461.63;5052754;28;20607;-68
2022/08/16 05:37:14;;;;;;;7.80;4.33;;;;;;;19.05;79.13;97465.44;5052950;28;20296;-67
2022/08/16 05:39:40;;;;;;;6.10;4.10;;;;;;;19.09;78.39;97456.47;5053028;28;20225;-67
2022/08/16 05:42:07;;;;;;;6.20;4.60;;;;;;;19.09;78.80;97459.16;5052667;28;20771;-67
2022/08/16 05:44:33;;;;;;;5.27;4.53;;;;;;;19.09;79.27;97461.06;5052866;28;20231;-67
2022/08/16 05:47:01;;;;;;;9.73;4.90;;;;;;;19.16;78.86;97454.25;5051600;28;20312;-68
2022/08/16 05:49:30;;;;;;;6.17;4.47;;;;;;;19.29;78.00;97452.75;5052498;28;20340;-67
2022/08/16 05:51:58;;;;;;;5.00;3.70;;;;;;;19.32;77.77;97455.69;5052589;28;20288;-67
2022/08/16 05:54:26;;;;;;;5.10;4.53;;;;;;;19.31;77.38;97462.16;5052647;28;20284;-67
2022/08/16 05:56:54;;;;;;;6.53;4.00;;;;;;;19.33;77.17;97462.69;5052731;28;20731;-67
2022/08/16 05:59:22;;;;;;;4.47;3.97;;;;;;;19.41;76.85;97462.03;5052731;28;20235;-67
2022/08/16 06:01:50;;;;;;;5.00;4.20;;;;;;;19.44;77.11;97464.16;5052512;28;20209;-67
2022/08/16 06:04:17;;;;;;;5.43;4.00;;;;;;;19.47;76.46;97460.09;5052558;28;20582;-67
2022/08/16 06:06:45;;;;;;;6.73;4.30;;;;;;;19.53;75.92;97462.41;5052582;28;20228;-68
2022/08/16 06:09:13;;;;;;;4.80;4.40;;;;;;;19.59;76.08;97472.03;5052210;28;20260;-67
2022/08/16 06:11:39;;;;;;;7.00;4.27;;;;;;;19.63;76.37;97464.19;5052331;28;20241;-67
2022/08/16 06:14:06;;;;;;;5.70;4.00;;;;;;;19.83;74.94;97476.56;5052408;28;20307;-68
2022/08/16 06:16:33;;;;;;;4.97;4.43;;;;;;;19.99;74.30;97475.25;5052547;28;20679;-67
2022/08/16 06:18:59;;;;;;;6.33;4.43;;;;;;;19.96;74.47;97473.97;5051926;28;20316;-68
2022/08/16 06:21:26;;;;;;;7.17;4.77;;;;;;;19.96;74.56;97476.66;5051929;28;20201;-68
2022/08/16 06:23:52;;;;;;;7.80;5.00;;;;;;;19.97;74.83;97477.44;5052306;28;20205;-68
2022/08/16 06:26:19;;;;;;;6.53;5.30;;;;;;;20.18;74.29;97470.69;5052563;28;20225;-68
2022/08/16 06:28:45;;;;;;;7.70;5.73;;;;;;;20.05;74.64;97474.91;5052391;28;20205;-68
2022/08/16 06:31:14;;;;;;;10.70;5.57;;;;;;;20.12;74.45;97472.66;5052317;28;20596;-68
2022/08/16 06:33:41;;;;;;;9.93;6.20;;;;;;;20.20;73.67;97468.47;5051895;28;20657;-69
2022/08/16 06:36:08;;;;;;;7.33;5.80;;;;;;;20.24;73.24;97461.41;5052591;28;20209;-69
2022/08/16 06:38:36;;;;;;;8.00;5.43;;;;;;;20.33;73.00;97462.31;5052108;28;20668;-70
2022/08/16 06:41:08;;;;;;;8.57;5.17;;;;;;;20.13;72.88;97473.47;5052116;28;20215;-69
2022/08/16 06:43:36;;;;;;;7.57;4.90;;;;;;;20.05;73.29;97474.09;5052844;28;20194;-70
2022/08/16 06:46:09;;;;;;;7.17;4.67;;;;;;;20.31;72.64;97478.03;5052081;28;20282;-69
2022/08/16 06:48:36;;;;;;;7.03;5.20;;;;;;;20.26;72.66;97467.31;5052369;28;20189;-69
2022/08/16 06:51:04;;;;;;;6.60;5.00;;;;;;;20.40;72.38;97468.16;5052014;28;20229;-68
2022/08/16 06:53:33;;;;;;;7.90;4.93;;;;;;;20.60;71.66;97471.31;5052421;28;20201;-69
2022/08/16 06:56:02;;;;;;;6.83;4.80;;;;;;;20.81;70.71;97467.16;5052908;28;20208;-69
2022/08/16 06:58:29;;;;;;;5.70;4.30;;;;;;;20.81;69.94;97469.06;5054765;28;20205;-69
2022/08/16 07:00:55;;;;;;;4.13;3.73;;;;;;;20.87;69.15;97474.06;5056147;28;20295;-69
2022/08/16 07:03:22;;;;;;;6.77;4.37;;;;;;;21.05;68.55;97484.03;5055941;28;20205;-70
2022/08/16 07:05:49;;;;;;;5.87;4.20;;;;;;;21.00;69.37;97483.31;5055613;28;20217;-69
2022/08/16 07:08:16;;;;;;;19.37;13.00;;;;;;;21.12;68.73;97486.34;5055514;28;20216;-69
2022/08/16 07:10:42;;;;;;;6.67;4.80;;;;;;;21.25;68.42;97486.34;5056043;28;20283;-69
2022/08/16 07:13:08;;;;;;;8.30;6.70;;;;;;;21.55;67.52;97493.03;5055774;28;20205;-69
2022/08/16 07:15:35;;;;;;;6.80;4.87;;;;;;;21.53;67.36;97490.63;5055791;28;20374;-70
2022/08/16 07:18:02;;;;;;;9.07;5.80;;;;;;;21.47;66.68;97485.66;5056434;28;20205;-69
2022/08/16 07:20:28;;;;;;;6.37;4.60;;;;;;;21.68;66.36;97484.91;5055166;28;20580;-69
2022/08/16 07:22:56;;;;;;;11.30;9.17;;;;;;;21.70;65.52;97484.66;5055912;28;20209;-69
2022/08/16 07:25:22;;;;;;;10.40;4.20;;;;;;;21.72;65.92;97487.84;5055496;28;20205;-69
2022/08/16 07:27:49;;;;;;;6.20;4.07;;;;;;;21.75;65.34;97481.81;5055628;28;20292;-69
2022/08/16 07:30:22;;;;;;;5.37;4.17;;;;;;;21.88;64.41;97486.41;5055185;28;20319;-69
2022/08/16 07:32:49;;;;;;;7.83;4.30;;;;;;;21.89;64.82;97483.38;5055626;28;20273;-69
2022/08/16 07:35:16;;;;;;;7.53;4.70;;;;;;;22.00;64.54;97475.81;5055064;28;20215;-69
2022/08/16 07:37:43;;;;;;;4.47;4.07;;;;;;;22.24;64.30;97477.16;5055215;28;20206;-69
2022/08/16 07:40:11;;;;;;;6.20;4.27;;;;;;;22.23;63.63;97482.88;5055171;28;20229;-69
2022/08/16 07:42:37;;;;;;;4.50;4.10;;;;;;;22.44;63.53;97478.56;5054986;28;20671;-68
2022/08/16 07:45:05;;;;;;;7.80;4.90;;;;;;;22.35;63.19;97475.81;5055128;28;20671;-68
2022/08/16 07:47:31;;;;;;;6.40;4.40;;;;;;;22.44;62.79;97476.69;5055088;28;20316;-68
2022/08/16 07:49:58;;;;;;;6.37;4.50;;;;;;;22.49;62.17;97481.19;5054944;28;20229;-68
2022/08/16 07:52:25;;;;;;;5.93;4.38;;;;;;;22.56;61.85;97486.97;5054827;28;20205;-68
2022/08/16 07:54:51;;;;;;;6.23;4.33;;;;;;;22.48;61.51;97485.78;5055084;28;20201;-68
2022/08/16 07:57:18;;;;;;;9.65;4.43;;;;;;;22.20;62.46;97483.50;5054890;28;20205;-68
2022/08/16 07:59:44;;;;;;;5.97;4.03;;;;;;;22.52;61.57;97488.69;5054466;28;20307;-68
2022/08/16 08:02:12;;;;;;;5.00;4.00;;;;;;;22.78;61.00;97484.22;5054961;28;20205;-68
2022/08/16 08:04:39;;;;;;;4.72;4.30;;;;;;;22.70;60.43;97485.00;5055033;28;20205;-69
2022/08/16 08:07:06;;;;;;;4.57;4.13;;;;;;;22.74;60.83;97483.25;5054778;28;20232;-68
2022/08/16 08:09:33;;;;;;;4.65;3.75;;;;;;;22.96;59.78;97485.91;5053991;28;20316;-68
2022/08/16 08:11:59;;;;;;;6.25;4.38;;;;;;;22.73;60.64;97492.47;5054812;28;20216;-69
2022/08/16 08:14:26;;;;;;;6.28;3.95;;;;;;;23.03;59.73;97486.28;5054376;28;20704;-68
2022/08/16 08:16:52;;;;;;;6.93;4.10;;;;;;;23.30;58.83;97488.81;5054697;28;20296;-68
2022/08/16 08:19:19;;;;;;;5.43;3.80;;;;;;;23.40;57.83;97485.81;5054462;28;20654;-68
2022/08/16 08:21:46;;;;;;;4.68;3.85;;;;;;;23.56;57.50;97500.56;5054611;28;20213;-68
2022/08/16 08:24:14;;;;;;;4.82;4.00;;;;;;;23.36;57.08;97495.69;5054153;28;20768;-69
2022/08/16 08:26:41;;;;;;;7.88;5.68;;;;;;;23.22;58.04;97492.28;5054288;28;20233;-68
2022/08/16 08:29:09;;;;;;;8.75;7.55;;;;;;;23.63;57.51;97503.59;5054109;28;20739;-68
2022/08/16 08:31:36;;;;;;;5.07;4.57;;;;;;;23.69;57.39;97514.00;5054460;28;20292;-68
2022/08/16 08:34:06;;;;;;;4.78;3.70;;;;;;;23.69;56.50;97507.78;5054333;28;20227;-68
2022/08/16 08:36:34;;;;;;;8.40;4.60;;;;;;;24.00;55.62;97506.56;5054291;28;20224;-68
2022/08/16 08:39:01;;;;;;;4.00;3.70;;;;;;;24.21;55.03;97502.13;5053951;28;20703;-68
2022/08/16 08:41:28;;;;;;;15.07;13.60;;;;;;;24.21;54.45;97510.28;5053938;28;20575;-68
2022/08/16 08:43:57;;;;;;;5.95;4.65;;;;;;;24.24;54.81;97516.97;5054088;28;20205;-69
2022/08/16 08:46:25;;;;;;;6.60;4.10;;;;;;;24.39;54.57;97514.59;5053905;28;20704;-69
2022/08/16 08:48:53;;;;;;;4.70;4.25;;;;;;;23.90;55.50;97516.94;5053687;28;20243;-69
2022/08/16 08:51:21;;;;;;;8.80;6.28;;;;;;;23.77;56.34;97517.84;5053858;28;20292;-69
2022/08/16 08:53:48;;;;;;;5.47;4.72;;;;;;;23.45;56.65;97513.59;5053383;28;20207;-68
2022/08/16 08:56:15;;;;;;;6.57;4.18;;;;;;;23.45;57.51;97513.59;5053326;28;20256;-69
2022/08/16 08:58:41;;;;;;;5.28;4.25;;;;;;;23.73;56.40;97519.56;5053525;28;20567;-68
2022/08/16 09:01:09;;;;;;;5.20;4.70;;;;;;;23.90;55.60;97516.94;5053926;28;20263;-68
2022/08/16 09:03:37;;;;;;;4.50;4.05;;;;;;;24.07;55.56;97523.22;5053810;28;20291;-68
2022/08/16 09:06:04;;;;;;;5.57;4.13;;;;;;;24.16;54.84;97529.41;5053294;28;20207;-68
2022/08/16 09:08:31;;;;;;;5.00;3.78;;;;;;;23.91;55.13;97529.38;5054405;28;20633;-69
2022/08/16 09:10:59;;;;;;;5.60;4.05;;;;;;;23.86;55.77;97522.19;5053729;28;20259;-69
2022/08/16 09:13:26;;;;;;;5.22;4.40;;;;;;;23.65;56.57;97526.59;5053503;28;20300;-69
2022/08/16 09:15:55;;;;;;;5.40;3.85;;;;;;;23.83;55.75;97527.44;5053735;28;20291;-70
2022/08/16 09:18:23;;;;;;;6.25;4.55;;;;;;;23.76;55.62;97532.53;5053325;28;20205;-69
2022/08/16 09:20:52;;;;;;;5.07;4.57;;;;;;;23.56;56.46;97528.47;5053019;28;20225;-69
2022/08/16 09:23:19;;;;;;;4.53;3.85;;;;;;;23.47;56.18;97524.94;5052557;28;20568;-69
2022/08/16 09:25:46;;;;;;;5.25;3.97;;;;;;;23.68;56.16;97531.41;5053491;28;20233;-69
2022/08/16 09:28:12;;;;;;;8.15;4.60;;;;;;;23.70;55.74;97522.94;5053750;28;20225;-69
2022/08/16 09:30:39;;;;;;;5.30;4.10;;;;;;;23.72;55.40;97526.94;5053240;28;20316;-70
2022/08/16 09:33:07;;;;;;;6.60;4.45;;;;;;;23.72;55.93;97521.50;5053855;28;20202;-69
2022/08/16 09:35:35;;;;;;;6.05;5.47;;;;;;;23.74;55.25;97530.13;5053413;28;20286;-70
2022/08/16 09:38:02;;;;;;;6.18;4.10;;;;;;;23.87;54.91;97528.38;5053063;28;20291;-69
2022/08/16 09:40:29;;;;;;;6.28;5.18;;;;;;;23.78;55.25;97531.09;5053347;28;20229;-69
2022/08/16 09:42:57;;;;;;;7.05;4.50;;;;;;;23.83;54.79;97527.44;5053155;28;20212;-70
2022/08/16 09:45:24;;;;;;;5.32;4.07;;;;;;;23.75;55.89;97526.28;5052982;28;20201;-69
2022/08/16 09:47:53;;;;;;;6.28;5.75;;;;;;;23.64;55.40;97527.72;5052878;28;20225;-69
2022/08/16 09:50:21;;;;;;;50.30;45.38;;;;;;;23.79;55.01;97531.91;5052844;28;20317;-69
2022/08/16 09:52:47;;;;;;;6.72;5.93;;;;;;;23.79;55.07;97534.63;5053181;28;20205;-70
2022/08/16 09:55:14;;;;;;;16.20;14.27;;;;;;;23.73;54.98;97533.16;5053535;28;20209;-70
2022/08/16 09:57:41;;;;;;;12.73;10.55;;;;;;;23.74;54.13;97534.78;5053012;28;20227;-70
2022/08/16 10:00:10;;;;;;;12.35;11.15;;;;;;;23.97;53.66;97526.22;5052553;28;20229;-70
2022/08/16 10:02:38;;;;;;;7.95;7.15;;;;;;;24.04;53.83;97518.41;5053077;28;20240;-69
2022/08/16 10:05:05;;;;;;;7.32;5.88;;;;;;;24.11;53.20;97520.66;5052529;28;20216;-69
2022/08/16 10:07:32;;;;;;;6.90;4.20;;;;;;;23.92;53.26;97520.94;5052855;28;20311;-70
2022/08/16 10:09:59;;;;;;;4.30;3.90;;;;;;;24.26;52.75;97523.69;5053030;28;20268;-70
2022/08/16 10:15:13;;;;;;;7.32;4.95;;;;;;;24.14;52.57;97522.72;5052819;28;20247;-70
2022/08/16 10:17:41;;;;;;;4.50;4.10;;;;;;;24.23;52.03;97521.59;5052302;28;20292;-69
2022/08/16 10:20:11;;;;;;;5.35;3.88;;;;;;;24.04;52.82;97520.31;5052562;28;20228;-69
2022/08/16 10:22:38;;;;;;;5.82;4.50;;;;;;;24.19;52.49;97517.94;5052483;28;20293;-69
2022/08/16 10:25:07;;;;;;;5.72;5.22;;;;;;;24.36;52.08;97525.28;5052600;28;20208;-69
2022/08/16 10:27:34;;;;;;;7.28;4.63;;;;;;;24.24;51.70;97525.13;5052711;28;20234;-69
2022/08/16 10:30:02;;;;;;;4.28;3.95;;;;;;;24.27;51.91;97527.19;5052248;28;20244;-69
2022/08/16 10:32:30;;;;;;;4.55;4.15;;;;;;;24.11;52.28;97535.00;5052848;28;20247;-69
2022/08/16 10:34:56;;;;;;;4.65;4.22;;;;;;;24.29;52.28;97527.69;5056295;28;20628;-70
2022/08/16 10:37:23;;;;;;;5.43;4.22;;;;;;;24.25;52.25;97532.16;5056713;28;20668;-70
2022/08/16 10:39:49;;;;;;;7.05;4.45;;;;;;;24.44;51.86;97543.50;5056138;28;20225;-69
2022/08/16 10:42:16;;;;;;;5.82;5.28;;;;;;;24.60;50.41;97534.56;5056487;28;20306;-70
2022/08/16 10:44:44;;;;;;;5.03;4.13;;;;;;;24.91;50.11;97539.81;5056112;28;20573;-70
2022/08/16 10:47:11;;;;;;;9.50;7.72;;;;;;;25.15;49.29;97540.09;5056378;28;20235;-70
2022/08/16 10:49:37;;;;;;;12.45;11.25;;;;;;;25.36;48.50;97543.69;5056535;28;20225;-70
2022/08/16 10:52:04;;;;;;;4.70;4.30;;;;;;;25.44;48.03;97542.88;5056185;28;20228;-70
2022/08/16 10:54:31;;;;;;;4.47;3.70;;;;;;;25.70;47.37;97538.13;5055890;28;20205;-70
2022/08/16 10:57:00;;;;;;;10.95;9.85;;;;;;;25.29;47.88;97527.09;5056050;28;20277;-70
2022/08/16 10:59:28;;;;;;;5.70;4.13;;;;;;;25.63;47.65;97526.94;5056091;28;20325;-70
2022/08/16 11:01:54;;;;;;;4.07;3.72;;;;;;;26.04;46.59;97538.75;5056002;28;20241;-70
2022/08/16 11:04:21;;;;;;;4.15;3.75;;;;;;;25.87;46.59;97533.38;5055669;28;20201;-70
2022/08/16 11:06:47;;;;;;;4.43;3.63;;;;;;;25.72;47.15;97536.66;5055498;28;20320;-70
2022/08/16 11:09:14;;;;;;;5.05;4.63;;;;;;;25.64;46.64;97532.06;5055427;28;20735;-69
2022/08/16 11:11:40;;;;;;;4.85;3.85;;;;;;;25.17;47.79;97537.81;5056399;28;20205;-70
2022/08/16 11:14:06;;;;;;;4.25;3.85;;;;;;;25.79;46.31;97538.88;5055795;28;20609;-70
2022/08/16 11:16:34;;;;;;;5.57;3.47;;;;;;;25.71;46.43;97534.25;5055571;28;20209;-70
2022/08/16 11:19:01;;;;;;;4.78;3.90;;;;;;;25.98;46.13;97539.25;5055484;28;20320;-69
2022/08/16 11:21:27;;;;;;;5.18;3.80;;;;;;;25.83;46.28;97539.81;5055720;28;20587;-70
2022/08/16 11:23:54;;;;;;;5.15;4.25;;;;;;;26.02;46.02;97545.66;5055959;28;20296;-69
2022/08/16 11:26:21;;;;;;;4.53;3.63;;;;;;;26.23;44.76;97530.13;5055665;28;20205;-70
2022/08/16 11:28:49;;;;;;;5.47;4.28;;;;;;;26.22;45.04;97542.94;5055199;28;20256;-70
2022/08/16 11:31:17;;;;;;;6.43;3.75;;;;;;;26.66;43.64;97541.50;5055416;28;20189;-70
2022/08/16 11:33:43;;;;;;;4.07;3.67;;;;;;;26.68;43.09;97531.84;5055472;28;20290;-69
2022/08/16 11:36:10;;;;;;;5.63;3.83;;;;;;;26.27;43.30;97525.59;5055130;28;20332;-69
2022/08/16 11:38:36;;;;;;;3.60;3.28;;;;;;;26.52;42.96;97530.84;5055234;28;20623;-70